Time;durP1;ratioP1;P1;durP2;ratioP2;P2;SDS_P1;SDS_P2;PMS_P1;PMS_P2;Temp;Humidity;BMP_temperature;BMP_pressure;BME280_temperature;BME280_humidity;BME280_pressure;Samples;Min_cycle;Max_cycle;Signal;HPM_P1;HPM_P2
2023/05/29 00:01:00;;;;;;;9.57;4.27;;;12.70;99.90;;;;;;5070167;28;20206;-60
2023/05/29 00:03:27;;;;;;;8.57;2.97;;;12.80;99.90;;;;;;5066341;28;20729;-60
2023/05/29 00:05:54;;;;;;;7.47;3.10;;;12.90;1.00;;;;;;5079999;28;20199;-60
2023/05/29 00:08:22;;;;;;;11.03;3.23;;;12.70;99.90;;;;;;5070862;28;20208;-60
2023/05/29 00:10:48;;;;;;;7.47;2.67;;;12.70;1.00;;;;;;5075663;28;20191;-60
2023/05/29 00:13:15;;;;;;;7.63;3.20;;;12.80;1.00;;;;;;5050305;28;20195;-60
2023/05/29 00:15:42;;;;;;;10.33;2.70;;;12.80;1.00;;;;;;5047866;28;20192;-60
2023/05/29 00:18:09;;;;;;;12.50;3.30;;;12.70;99.90;;;;;;5079579;28;20215;-60
2023/05/29 00:20:37;;;;;;;8.77;2.57;;;12.50;1.00;;;;;;5084876;28;20708;-60
2023/05/29 00:23:06;;;;;;;7.07;2.37;;;12.60;1.00;;;;;;5072212;28;20212;-60
2023/05/29 00:25:33;;;;;;;8.70;2.43;;;12.50;99.90;;;;;;5063218;28;20217;-60
2023/05/29 00:28:00;;;;;;;11.10;3.50;;;12.50;87.70;;;;;;5081256;28;20245;-64
2023/05/29 00:30:27;;;;;;;6.83;2.23;;;12.50;1.00;;;;;;5089043;28;20675;-60
2023/05/29 00:32:54;;;;;;;12.53;3.00;;;12.30;99.90;;;;;;5087980;28;20265;-60
2023/05/29 00:35:21;;;;;;;13.07;3.50;;;12.40;99.90;;;;;;5087743;28;20725;-59
2023/05/29 00:37:48;;;;;;;11.57;2.53;;;12.40;99.90;;;;;;5086937;28;20241;-59
2023/05/29 00:40:20;;;;;;;10.90;2.77;;;12.30;99.90;;;;;;5086584;28;20201;-60
2023/05/29 00:42:47;;;;;;;9.60;2.50;;;12.10;99.90;;;;;;5069563;28;20205;-60
2023/05/29 00:45:13;;;;;;;10.97;2.67;;;12.30;99.90;;;;;;5085026;28;20205;-59
2023/05/29 00:47:42;;;;;;;8.27;2.50;;;12.20;99.90;;;;;;5083330;28;20220;-60
2023/05/29 00:50:10;;;;;;;7.93;3.13;;;12.30;99.90;;;;;;5087117;28;20270;-59
2023/05/29 00:52:39;;;;;;;9.87;2.97;;;12.20;99.90;;;;;;5084445;28;20215;-60
2023/05/29 00:55:07;;;;;;;7.47;2.27;;;12.10;99.90;;;;;;5081823;28;20197;-59
2023/05/29 00:57:35;;;;;;;8.43;2.97;;;11.90;99.90;;;;;;5082792;28;20281;-59
2023/05/29 01:00:08;;;;;;;7.80;2.50;;;11.90;99.90;;;;;;5081785;28;20208;-60
2023/05/29 01:02:37;;;;;;;5.20;2.27;;;11.80;99.90;;;;;;5067173;28;20209;-60
2023/05/29 01:05:05;;;;;;;11.50;3.03;;;11.80;99.90;;;;;;5087543;28;20199;-60
2023/05/29 01:07:33;;;;;;;13.43;3.20;;;11.80;99.90;;;;;;5052328;28;20215;-60
2023/05/29 01:10:00;;;;;;;10.23;2.73;;;11.90;99.90;;;;;;5084133;28;20238;-59
2023/05/29 01:12:38;;;;;;;14.93;3.67;;;12.00;99.90;;;;;;5083315;28;20339;-60
2023/05/29 01:15:28;;;;;;;6.87;2.27;;;11.80;99.90;;;;;;5066571;28;20199;-59
2023/05/29 01:18:12;;;;;;;13.00;3.80;;;11.70;99.90;;;;;;5081621;28;20217;-60
2023/05/29 01:20:44;;;;;;;10.17;3.00;;;11.80;99.90;;;;;;5085221;28;20293;-60
2023/05/29 01:23:27;;;;;;;13.03;2.57;;;11.90;99.90;;;;;;5074184;28;20207;-61
2023/05/29 01:26:01;;;;;;;9.33;2.77;;;11.80;99.90;;;;;;5083478;28;20195;-60
2023/05/29 01:28:37;;;;;;;10.63;2.73;;;11.80;99.90;;;;;;5081909;28;20234;-60
2023/05/29 01:31:05;;;;;;;10.93;2.33;;;11.80;99.90;;;;;;5084280;28;20195;-60
2023/05/29 01:33:33;;;;;;;12.73;2.80;;;11.70;99.90;;;;;;5058578;28;20381;-60
2023/05/29 01:35:59;;;;;;;8.07;2.47;;;11.70;99.90;;;;;;5085578;28;20258;-63
2023/05/29 01:38:26;;;;;;;13.17;3.17;;;11.70;99.90;;;;;;5084196;28;20215;-64
2023/05/29 01:40:53;;;;;;;18.40;3.13;;;11.70;99.90;;;;;;5078419;28;20199;-60
2023/05/29 01:43:21;;;;;;;15.67;2.70;;;11.70;99.90;;;;;;5084533;28;20229;-60
2023/05/29 01:45:48;;;;;;;11.60;2.80;;;11.70;99.90;;;;;;5083826;28;20235;-59
2023/05/29 01:48:16;;;;;;;5.67;2.67;;;11.60;99.90;;;;;;5084573;28;20211;-60
2023/05/29 01:50:44;;;;;;;10.40;3.17;;;11.60;99.90;;;;;;5082595;28;20198;-60
2023/05/29 01:53:10;;;;;;;11.97;3.07;;;11.80;99.90;;;;;;5080567;28;20573;-60
2023/05/29 01:55:37;;;;;;;10.60;2.63;;;11.60;99.90;;;;;;5085057;28;20209;-60
2023/05/29 01:58:05;;;;;;;11.10;2.80;;;11.60;99.90;;;;;;5080344;28;20230;-60
2023/05/29 02:00:32;;;;;;;10.97;3.37;;;11.60;99.90;;;;;;5083549;28;20634;-59
2023/05/29 02:03:00;;;;;;;9.33;3.10;;;11.60;99.90;;;;;;5082614;28;20206;-59
2023/05/29 02:05:27;;;;;;;8.57;2.63;;;11.60;99.90;;;;;;5067024;28;20255;-59
2023/05/29 02:07:54;;;;;;;16.50;2.67;;;11.50;99.90;;;;;;5083728;28;20209;-59
2023/05/29 02:10:21;;;;;;;5.83;2.13;;;11.40;99.90;;;;;;5079520;28;20205;-60
2023/05/29 02:12:48;;;;;;;12.93;2.57;;;11.50;99.90;;;;;;5063935;28;20206;-59
2023/05/29 02:15:15;;;;;;;12.80;2.47;;;11.40;99.90;;;;;;5081599;28;20205;-59
2023/05/29 02:17:41;;;;;;;13.30;3.37;;;11.30;99.90;;;;;;5080824;28;20215;-59
2023/05/29 02:20:09;;;;;;;14.37;2.60;;;11.30;99.90;;;;;;5084315;28;20296;-59
2023/05/29 02:22:36;;;;;;;8.40;3.30;;;11.30;99.90;;;;;;5083032;28;20209;-59
2023/05/29 02:25:03;;;;;;;11.63;2.60;;;11.30;99.90;;;;;;5053587;28;20253;-61
2023/05/29 02:27:30;;;;;;;7.10;2.43;;;11.30;99.90;;;;;;5073070;28;20480;-60
2023/05/29 02:29:58;;;;;;;6.83;2.40;;;11.20;99.90;;;;;;5082803;28;20215;-59
2023/05/29 02:32:27;;;;;;;9.97;2.53;;;11.20;99.90;;;;;;5083163;28;20303;-59
2023/05/29 02:34:54;;;;;;;12.67;1.93;;;11.10;99.90;;;;;;5083333;28;20209;-59
2023/05/29 02:37:25;;;;;;;10.77;2.33;;;11.10;99.90;;;;;;5084026;28;20612;-59
2023/05/29 02:39:52;;;;;;;12.03;2.67;;;11.00;99.90;;;;;;5064896;28;20764;-59
2023/05/29 02:42:19;;;;;;;7.43;2.43;;;11.00;99.90;;;;;;5082194;28;20215;-59
2023/05/29 02:44:46;;;;;;;7.93;2.30;;;11.00;99.90;;;;;;5066430;28;20488;-59
2023/05/29 02:47:13;;;;;;;10.40;2.50;;;11.00;99.90;;;;;;5082710;28;20210;-59
2023/05/29 02:49:40;;;;;;;12.73;2.80;;;11.00;99.90;;;;;;5082169;28;20249;-59
2023/05/29 02:52:07;;;;;;;11.17;2.53;;;11.00;99.90;;;;;;5084695;28;20202;-59
2023/05/29 02:54:34;;;;;;;8.47;3.00;;;11.10;99.90;;;;;;5086137;28;20207;-59
2023/05/29 02:57:02;;;;;;;12.60;2.80;;;11.10;99.90;;;;;;5070665;28;20420;-61
2023/05/29 02:59:29;;;;;;;12.73;2.70;;;11.00;99.90;;;;;;5082844;28;20221;-59
2023/05/29 03:01:56;;;;;;;13.50;3.10;;;11.20;99.90;;;;;;5088105;28;20201;-59
2023/05/29 03:04:23;;;;;;;12.23;2.90;;;11.00;99.90;;;;;;5084541;28;20254;-59
2023/05/29 03:06:49;;;;;;;13.07;2.43;;;10.90;99.90;;;;;;5088581;28;20248;-62
2023/05/29 03:09:16;;;;;;;12.30;2.70;;;10.90;99.90;;;;;;5088599;28;20232;-61
2023/05/29 03:11:44;;;;;;;17.00;3.23;;;11.00;99.90;;;;;;5087047;28;20562;-59
2023/05/29 03:14:11;;;;;;;7.97;2.23;;;11.10;99.90;;;;;;5085271;28;20318;-59
2023/05/29 03:16:38;;;;;;;15.20;3.00;;;11.10;99.90;;;;;;5087198;28;21198;-59
2023/05/29 03:19:05;;;;;;;15.57;3.03;;;11.00;99.90;;;;;;5085884;28;20212;-59
2023/05/29 03:21:32;;;;;;;8.67;2.77;;;10.90;99.90;;;;;;5088888;28;20197;-59
2023/05/29 03:24:00;;;;;;;12.23;2.57;;;10.80;99.90;;;;;;5083679;28;20246;-59
2023/05/29 03:26:27;;;;;;;15.13;2.50;;;10.90;99.90;;;;;;5087444;28;20213;-59
2023/05/29 03:28:54;;;;;;;11.07;2.47;;;11.00;99.90;;;;;;5065928;28;20208;-59
2023/05/29 03:31:21;;;;;;;11.77;2.70;;;10.80;99.90;;;;;;5088113;28;20234;-65
2023/05/29 03:33:49;;;;;;;11.53;2.27;;;10.80;99.90;;;;;;5086159;28;21056;-59
2023/05/29 03:36:19;;;;;;;7.00;2.63;;;10.70;99.90;;;;;;5087730;28;20252;-59
2023/05/29 03:38:46;;;;;;;10.30;3.10;;;10.70;99.90;;;;;;5088461;28;20212;-59
2023/05/29 03:41:13;;;;;;;11.90;2.87;;;10.70;99.90;;;;;;5086421;28;20328;-59
2023/05/29 03:43:40;;;;;;;8.00;2.40;;;10.60;99.90;;;;;;5086486;28;20203;-59
2023/05/29 03:46:07;;;;;;;12.27;3.50;;;10.70;99.90;;;;;;5086392;28;20205;-59
2023/05/29 03:48:33;;;;;;;11.30;2.33;;;10.60;99.90;;;;;;5088405;28;20219;-59
2023/05/29 03:51:00;;;;;;;12.37;2.33;;;10.60;99.90;;;;;;5084142;28;22269;-59
2023/05/29 03:53:27;;;;;;;12.43;2.90;;;10.60;99.90;;;;;;5077877;28;20223;-63
2023/05/29 03:55:54;;;;;;;13.60;2.37;;;10.50;99.90;;;;;;5077523;28;20559;-62
2023/05/29 03:58:21;;;;;;;10.23;3.37;;;10.40;99.90;;;;;;5077576;28;20222;-59
2023/05/29 04:00:48;;;;;;;10.13;2.63;;;10.50;99.90;;;;;;5081171;28;20195;-61
2023/05/29 04:03:15;;;;;;;15.20;2.83;;;10.60;99.90;;;;;;5080757;28;20603;-59
2023/05/29 04:05:42;;;;;;;10.73;2.40;;;10.60;99.90;;;;;;5057514;28;20210;-58
2023/05/29 04:08:10;;;;;;;15.53;2.90;;;10.50;99.90;;;;;;5073723;28;20209;-62
2023/05/29 04:10:43;;;;;;;14.13;3.30;;;10.60;99.90;;;;;;5074552;28;20299;-59
2023/05/29 04:13:10;;;;;;;10.47;2.43;;;10.50;99.90;;;;;;5082473;28;20203;-58
2023/05/29 04:15:37;;;;;;;9.27;2.70;;;10.60;99.90;;;;;;5077255;28;20202;-58
2023/05/29 04:18:04;;;;;;;10.47;2.40;;;10.40;99.90;;;;;;5060245;28;20314;-57
2023/05/29 04:20:31;;;;;;;8.67;2.13;;;10.60;99.90;;;;;;5076831;28;20202;-57
2023/05/29 04:22:58;;;;;;;10.47;2.47;;;10.80;99.90;;;;;;5060391;28;20656;-58
2023/05/29 04:25:25;;;;;;;13.27;2.73;;;10.60;99.90;;;;;;5078949;28;20197;-58
2023/05/29 04:27:52;;;;;;;10.97;2.87;;;10.50;99.90;;;;;;5078339;28;20238;-58
2023/05/29 04:30:19;;;;;;;11.07;2.10;;;10.50;99.90;;;;;;5077414;28;20294;-58
2023/05/29 04:32:46;;;;;;;8.87;2.87;;;10.50;99.90;;;;;;5079440;28;20591;-57
2023/05/29 04:35:13;;;;;;;13.30;3.07;;;10.60;99.90;;;;;;5084713;28;20677;-57
2023/05/29 04:37:40;;;;;;;12.27;2.60;;;10.60;99.90;;;;;;5077111;28;20200;-57
2023/05/29 04:40:09;;;;;;;10.90;2.30;;;10.60;99.90;;;;;;5078251;28;20196;-58
2023/05/29 04:42:44;;;;;;;12.53;2.47;;;10.80;99.90;;;;;;5081091;28;22571;-57
2023/05/29 04:45:11;;;;;;;11.50;2.80;;;10.70;1.00;;;;;;5081677;28;20258;-58
2023/05/29 04:47:42;;;;;;;8.83;2.27;;;10.80;99.90;;;;;;5079694;28;20231;-58
2023/05/29 04:50:13;;;;;;;9.90;2.87;;;10.70;1.00;;;;;;5080522;28;20606;-58
2023/05/29 04:52:40;;;;;;;17.33;2.57;;;10.80;99.90;;;;;;5082985;28;20197;-58
2023/05/29 04:55:07;;;;;;;12.47;2.60;;;10.90;1.00;;;;;;5080114;28;20228;-57
2023/05/29 04:57:34;;;;;;;15.60;2.47;;;11.00;1.00;;;;;;5080113;28;20195;-58
2023/05/29 05:00:04;;;;;;;11.27;2.73;;;11.20;1.00;;;;;;5080210;28;20220;-58
2023/05/29 05:02:31;;;;;;;13.43;2.60;;;11.00;99.90;;;;;;5078549;28;20209;-58
2023/05/29 05:04:59;;;;;;;8.70;2.33;;;11.00;1.00;;;;;;5050229;28;20266;-58
2023/05/29 05:07:26;;;;;;;13.27;2.80;;;11.10;1.00;;;;;;5065698;28;20276;-58
2023/05/29 05:09:52;;;;;;;9.47;2.40;;;11.10;99.90;;;;;;5077846;28;20265;-58
2023/05/29 05:12:19;;;;;;;7.40;2.23;;;11.20;99.90;;;;;;5062613;28;20212;-58
2023/05/29 05:14:46;;;;;;;8.27;2.53;;;11.20;1.00;;;;;;5060994;28;20234;-58
2023/05/29 05:17:13;;;;;;;11.77;3.70;;;11.10;99.90;;;;;;5079223;28;22019;-58
2023/05/29 05:19:40;;;;;;;9.10;2.23;;;11.00;1.00;;;;;;5085190;28;20216;-57
2023/05/29 05:22:07;;;;;;;6.47;2.10;;;11.10;99.90;;;;;;5071483;28;20192;-58
2023/05/29 05:24:35;;;;;;;9.63;2.37;;;11.20;99.90;;;;;;5082805;28;20212;-58
2023/05/29 05:27:02;;;;;;;16.00;2.73;;;11.10;1.00;;;;;;5083605;28;20718;-62
2023/05/29 05:29:29;;;;;;;11.23;2.10;;;11.20;1.00;;;;;;5065401;28;20203;-57
2023/05/29 05:31:56;;;;;;;9.83;2.27;;;11.40;1.00;;;;;;5067835;28;20210;-58
2023/05/29 05:34:23;;;;;;;6.77;2.17;;;11.20;99.90;;;;;;5080853;28;20234;-57
2023/05/29 05:36:50;;;;;;;10.60;2.70;;;11.30;61.70;;;;;;5081287;28;20647;-58
2023/05/29 05:39:17;;;;;;;10.33;2.03;;;11.40;1.00;;;;;;5084185;28;20210;-58
2023/05/29 05:41:44;;;;;;;12.03;2.47;;;11.50;13.30;;;;;;5071149;28;20194;-57
2023/05/29 05:44:11;;;;;;;8.63;2.00;;;11.60;99.90;;;;;;5081586;28;20216;-58
2023/05/29 05:46:38;;;;;;;10.97;3.10;;;11.40;1.00;;;;;;5083737;28;20201;-58
2023/05/29 05:49:05;;;;;;;6.57;2.00;;;11.50;1.00;;;;;;5084824;28;20227;-58
2023/05/29 05:51:32;;;;;;;8.03;2.20;;;11.60;1.00;;;;;;5084790;28;20262;-58
2023/05/29 05:53:59;;;;;;;11.20;2.87;;;11.60;99.90;;;;;;5089347;28;20196;-58
2023/05/29 05:56:26;;;;;;;14.47;2.80;;;11.70;1.00;;;;;;5089167;28;20675;-58
2023/05/29 05:58:53;;;;;;;12.50;2.57;;;11.70;99.90;;;;;;5086522;28;20213;-58
2023/05/29 06:01:20;;;;;;;8.13;2.70;;;11.80;40.10;;;;;;5075563;28;20209;-58
2023/05/29 06:03:46;;;;;;;10.63;2.43;;;11.70;1.00;;;;;;5059597;28;20197;-57
2023/05/29 06:06:14;;;;;;;11.17;2.37;;;11.80;1.00;;;;;;5085662;28;20195;-58
2023/05/29 06:08:41;;;;;;;12.47;2.30;;;11.70;1.00;;;;;;5069813;28;20204;-58
2023/05/29 06:11:08;;;;;;;9.40;2.00;;;11.80;1.00;;;;;;5088129;28;20596;-59
2023/05/29 06:13:35;;;;;;;10.40;1.87;;;11.90;1.00;;;;;;5087251;28;20204;-58
2023/05/29 06:16:02;;;;;;;13.73;2.93;;;12.00;1.00;;;;;;5085837;28;20570;-58
2023/05/29 06:18:29;;;;;;;12.17;2.50;;;11.90;1.00;;;;;;5084859;28;20727;-58
2023/05/29 06:20:56;;;;;;;11.80;2.70;;;12.00;99.90;;;;;;5074968;28;20218;-57
2023/05/29 06:23:24;;;;;;;9.90;2.33;;;12.10;1.00;;;;;;5068579;28;20213;-58
2023/05/29 06:25:51;;;;;;;11.37;2.13;;;12.30;1.00;;;;;;5070445;28;20197;-58
2023/05/29 06:28:18;;;;;;;13.97;2.10;;;12.40;1.00;;;;;;5067986;28;20237;-58
2023/05/29 06:30:45;;;;;;;10.83;2.60;;;12.20;99.90;;;;;;5088340;28;20209;-58
2023/05/29 06:33:12;;;;;;;12.03;2.10;;;12.30;99.90;;;;;;5082760;28;20658;-60
2023/05/29 06:35:39;;;;;;;10.20;2.07;;;12.60;1.00;;;;;;5069634;28;20506;-58
2023/05/29 06:38:06;;;;;;;6.67;2.00;;;12.50;1.00;;;;;;5081344;28;20244;-58
2023/05/29 06:40:33;;;;;;;8.63;2.17;;;12.50;1.00;;;;;;5088335;28;20256;-58
2023/05/29 06:43:00;;;;;;;8.83;2.07;;;12.60;99.90;;;;;;5082560;28;20197;-58
2023/05/29 06:45:27;;;;;;;8.67;2.17;;;12.70;99.90;;;;;;5066188;28;20204;-58
2023/05/29 06:47:55;;;;;;;8.23;1.80;;;13.00;1.00;;;;;;5082282;28;20577;-59
2023/05/29 06:50:22;;;;;;;11.17;2.10;;;12.90;1.00;;;;;;5084783;28;20259;-58
2023/05/29 06:52:49;;;;;;;13.57;2.30;;;13.10;99.90;;;;;;5079443;28;21155;-58
2023/05/29 06:55:16;;;;;;;5.53;1.87;;;13.10;61.80;;;;;;5083864;28;20205;-63
2023/05/29 06:57:43;;;;;;;8.60;2.40;;;13.30;99.90;;;;;;4721578;28;9999789;-59
2023/05/29 07:00:11;;;;;;;9.00;2.13;;;13.40;68.60;;;;;;5051239;28;20251;-58
2023/05/29 07:02:38;;;;;;;12.17;1.93;;;13.60;71.10;;;;;;5080575;28;20205;-59
2023/05/29 07:05:05;;;;;;;6.70;1.57;;;13.40;99.90;;;;;;5063717;28;20340;-58
2023/05/29 07:07:32;;;;;;;10.57;1.80;;;13.40;1.00;;;;;;5084931;28;20248;-58
2023/05/29 07:09:59;;;;;;;13.10;1.90;;;13.10;27.60;;;;;;5080454;28;20832;-58
2023/05/29 07:12:27;;;;;;;6.20;2.03;;;13.20;1.00;;;;;;5067390;28;20353;-58
2023/05/29 07:14:53;;;;;;;8.23;1.70;;;13.40;10.40;;;;;;5075588;28;20273;-58
2023/05/29 07:17:20;;;;;;;9.80;2.70;;;13.20;99.90;;;;;;5072097;28;20217;-58
2023/05/29 07:19:49;;;;;;;5.47;1.77;;;13.70;1.00;;;;;;5078774;28;20209;-58
2023/05/29 07:22:16;;;;;;;8.97;2.10;;;13.60;99.90;;;;;;5082833;28;20198;-58
2023/05/29 07:24:43;;;;;;;9.60;1.60;;;13.70;1.00;;;;;;5079909;28;20250;-58
2023/05/29 07:27:10;;;;;;;4.83;1.30;;;13.70;99.90;;;;;;5072046;28;20236;-58
2023/05/29 07:29:36;;;;;;;9.10;2.63;;;13.70;99.90;;;;;;5077250;28;20198;-57
2023/05/29 07:32:04;;;;;;;7.77;2.13;;;13.70;99.90;;;;;;5083521;28;20208;-59
2023/05/29 07:34:31;;;;;;;8.43;2.37;;;13.90;99.90;;;;;;5080497;28;20271;-58
2023/05/29 07:37:03;;;;;;;8.77;2.33;;;14.60;1.00;;;;;;5083882;28;20247;-58
2023/05/29 07:39:31;;;;;;;7.57;2.47;;;14.50;75.70;;;;;;5081644;28;20214;-58
2023/05/29 07:42:02;;;;;;;6.33;1.77;;;14.50;99.90;;;;;;5062644;28;20537;-58
2023/05/29 07:44:29;;;;;;;6.50;1.83;;;14.50;1.00;;;;;;5080261;28;20192;-58
2023/05/29 07:46:56;;;;;;;8.00;2.10;;;14.40;1.00;;;;;;5080825;28;20200;-58
2023/05/29 07:49:23;;;;;;;8.97;2.00;;;14.40;99.90;;;;;;5080366;28;20206;-60
2023/05/29 07:51:51;;;;;;;8.13;1.73;;;14.50;99.90;;;;;;5076573;28;20213;-60
2023/05/29 07:54:20;;;;;;;9.53;2.10;;;15.20;99.90;;;;;;5080408;28;20579;-60
2023/05/29 07:56:47;;;;;;;8.97;1.87;;;15.30;99.90;;;;;;5081134;28;20198;-60
2023/05/29 07:59:14;;;;;;;6.73;1.87;;;15.30;99.90;;;;;;5078000;28;20283;-58
2023/05/29 08:01:43;;;;;;;8.83;2.30;;;15.00;1.00;;;;;;5076137;28;20284;-58
2023/05/29 08:04:11;;;;;;;6.63;1.67;;;14.70;99.90;;;;;;5054349;28;20221;-59
2023/05/29 08:06:38;;;;;;;6.83;2.13;;;14.80;99.90;;;;;;5074419;28;20612;-58
2023/05/29 08:09:05;;;;;;;8.60;1.90;;;14.50;99.90;;;;;;5075095;28;20996;-58
2023/05/29 08:11:32;;;;;;;10.43;2.07;;;15.00;99.90;;;;;;5079960;28;20293;-59
2023/05/29 08:13:59;;;;;;;6.63;1.70;;;14.90;99.90;;;;;;5071236;28;20944;-58
2023/05/29 08:16:27;;;;;;;6.00;1.70;;;14.90;99.90;;;;;;5076259;28;20726;-58
2023/05/29 08:18:54;;;;;;;10.20;2.20;;;14.90;1.00;;;;;;5055556;28;20326;-58
2023/05/29 08:21:21;;;;;;;8.87;1.63;;;15.00;99.90;;;;;;5076330;28;20201;-58
2023/05/29 08:23:48;;;;;;;7.70;1.97;;;15.30;99.90;;;;;;5036398;28;20294;-60
2023/05/29 08:26:15;;;;;;;8.70;2.40;;;15.50;99.90;;;;;;5074036;28;20214;-60
2023/05/29 08:28:42;;;;;;;5.57;1.67;;;15.40;99.90;;;;;;5062135;28;20229;-60
2023/05/29 08:31:09;;;;;;;8.30;1.70;;;15.40;99.90;;;;;;5078096;28;20207;-60
2023/05/29 08:33:36;;;;;;;5.50;1.63;;;15.30;99.90;;;;;;5076662;28;20325;-60
2023/05/29 08:36:03;;;;;;;5.50;1.97;;;15.90;99.90;;;;;;5078360;28;20196;-61
2023/05/29 08:38:31;;;;;;;7.20;1.50;;;16.30;99.90;;;;;;5057980;28;20211;-60
2023/05/29 08:40:58;;;;;;;7.07;1.97;;;16.20;99.90;;;;;;5060025;28;20218;-60
2023/05/29 08:43:32;;;;;;;7.60;1.73;;;15.50;99.90;;;;;;5072943;28;21225;-60
2023/05/29 08:46:01;;;;;;;8.83;1.73;;;15.80;99.90;;;;;;5076423;28;20229;-60
2023/05/29 08:48:30;;;;;;;4.77;1.70;;;16.10;99.90;;;;;;5079407;28;20225;-60
2023/05/29 08:50:58;;;;;;;9.37;2.07;;;16.30;99.90;;;;;;5080914;28;20726;-59
2023/05/29 08:53:25;;;;;;;9.37;1.60;;;16.50;99.90;;;;;;5078939;28;20679;-61
2023/05/29 08:55:53;;;;;;;4.90;1.87;;;16.30;99.90;;;;;;5083248;28;20212;-59
2023/05/29 08:58:21;;;;;;;6.77;2.27;;;16.40;99.90;;;;;;5072793;28;20751;-60
2023/05/29 09:00:49;;;;;;;6.23;1.50;;;16.10;99.90;;;;;;5065876;28;20267;-60
2023/05/29 09:03:17;;;;;;;9.67;2.20;;;16.00;99.90;;;;;;5080762;28;20282;-59
2023/05/29 09:05:45;;;;;;;6.57;1.90;;;16.20;99.90;;;;;;5081865;28;20231;-59
2023/05/29 09:08:12;;;;;;;6.10;1.90;;;16.50;99.90;;;;;;5084244;28;20205;-60
2023/05/29 09:10:43;;;;;;;6.30;1.80;;;16.30;99.90;;;;;;5090053;28;20612;-59
2023/05/29 09:13:13;;;;;;;6.50;1.80;;;16.10;99.90;;;;;;5080560;28;20681;-60
2023/05/29 09:15:42;;;;;;;6.00;1.97;;;16.80;99.90;;;;;;5084594;28;20233;-59
2023/05/29 09:18:31;;;;;;;8.40;1.63;;;16.80;99.90;;;;;;5085498;28;20228;-60
2023/05/29 09:20:58;;;;;;;7.97;1.93;;;17.20;99.90;;;;;;5079674;28;20212;-60
2023/05/29 09:23:28;;;;;;;5.13;1.83;;;16.80;99.90;;;;;;5082508;28;20634;-59
2023/05/29 09:25:55;;;;;;;6.23;2.40;;;16.80;99.90;;;;;;5076079;28;20197;-60
2023/05/29 09:28:23;;;;;;;4.20;1.63;;;16.90;99.90;;;;;;5074638;28;20314;-59
2023/05/29 09:30:50;;;;;;;7.63;2.10;;;16.30;99.90;;;;;;5074330;28;20227;-64
2023/05/29 09:33:17;;;;;;;4.67;1.63;;;16.50;99.90;;;;;;5074840;28;20259;-59
2023/05/29 09:35:50;;;;;;;7.77;2.30;;;16.50;99.90;;;;;;5072790;28;20220;-60
2023/05/29 09:38:18;;;;;;;5.60;1.83;;;17.00;99.90;;;;;;5074870;28;20212;-59
2023/05/29 09:41:05;;;;;;;8.63;2.20;;;16.70;99.90;;;;;;5072290;28;20269;-60
2023/05/29 09:43:33;;;;;;;6.20;2.07;;;16.70;99.90;;;;;;5074157;28;20204;-59
2023/05/29 09:46:01;;;;;;;6.13;2.07;;;16.50;99.90;;;;;;5057867;28;20292;-59
2023/05/29 09:48:30;;;;;;;5.53;1.73;;;16.50;99.90;;;;;;5078954;28;20201;-59
2023/05/29 09:50:58;;;;;;;6.83;2.00;;;16.80;99.90;;;;;;5062045;28;20204;-59
2023/05/29 09:53:28;;;;;;;8.77;3.37;;;17.00;99.90;;;;;;5075327;28;20217;-59
2023/05/29 09:55:56;;;;;;;8.10;2.17;;;17.10;99.90;;;;;;5077422;28;22131;-59
2023/05/29 09:58:25;;;;;;;3.00;1.73;;;16.70;99.90;;;;;;5076143;28;20210;-58
2023/05/29 10:00:53;;;;;;;9.47;2.10;;;16.80;99.90;;;;;;5076697;28;20248;-59
2023/05/29 10:03:23;;;;;;;8.70;2.03;;;16.60;99.90;;;;;;5063324;28;20213;-59
2023/05/29 10:05:56;;;;;;;6.57;2.43;;;16.70;99.90;;;;;;5073073;28;20206;-59
2023/05/29 10:08:25;;;;;;;8.63;2.40;;;17.20;99.90;;;;;;5082092;28;20240;-59
2023/05/29 10:11:15;;;;;;;5.97;2.03;;;17.40;1.00;;;;;;5064891;28;20224;-59
2023/05/29 10:13:48;;;;;;;11.47;2.37;;;17.20;1.00;;;;;;5078530;28;20674;-59
2023/05/29 10:16:16;;;;;;;9.50;2.40;;;17.20;99.90;;;;;;5082535;28;20661;-59
2023/05/29 10:18:49;;;;;;;7.07;2.10;;;17.90;1.00;;;;;;5082291;28;20202;-59
2023/05/29 10:21:17;;;;;;;6.90;2.10;;;17.80;94.10;;;;;;5073260;28;20312;-59
2023/05/29 10:23:48;;;;;;;12.23;2.13;;;17.50;99.90;;;;;;5077786;28;20203;-59
2023/05/29 10:26:27;;;;;;;8.27;2.00;;;17.50;1.00;;;;;;5081042;28;20197;-59
2023/05/29 10:29:17;;;;;;;6.87;1.87;;;17.30;1.00;;;;;;5076933;28;20217;-59
2023/05/29 10:32:04;;;;;;;6.57;1.80;;;17.70;1.00;;;;;;5078134;28;20206;-59
2023/05/29 10:34:45;;;;;;;5.27;1.83;;;17.30;1.00;;;;;;5078974;28;20199;-59
2023/05/29 10:37:42;;;;;;;9.13;3.60;;;17.20;1.00;;;;;;5080555;28;20198;-59
2023/05/29 10:40:12;;;;;;;5.30;1.83;;;17.40;99.90;;;;;;5073708;28;20726;-60
2023/05/29 10:42:52;;;;;;;4.47;1.63;;;17.60;1.00;;;;;;5060118;28;20677;-59
2023/05/29 10:45:31;;;;;;;5.97;1.90;;;17.60;42.30;;;;;;5087319;28;20681;-59
2023/05/29 10:48:10;;;;;;;7.00;1.90;;;17.70;99.90;;;;;;5089999;28;20788;-59
2023/05/29 10:50:40;;;;;;;6.30;2.07;;;17.60;54.50;;;;;;5084396;28;20214;-59
2023/05/29 10:53:14;;;;;;;8.20;2.00;;;18.00;1.00;;;;;;5082061;28;20215;-59
2023/05/29 10:55:42;;;;;;;7.80;1.93;;;17.90;80.80;;;;;;5077818;28;20727;-59
2023/05/29 10:58:13;;;;;;;8.90;2.40;;;17.90;1.00;;;;;;5071783;28;20267;-59
2023/05/29 11:00:45;;;;;;;9.50;1.80;;;17.80;1.00;;;;;;5072265;28;20239;-59
2023/05/29 11:03:39;;;;;;;4.47;1.87;;;18.40;1.00;;;;;;5066734;28;20196;-59
2023/05/29 11:06:17;;;;;;;6.57;1.97;;;18.40;99.90;;;;;;5063038;28;20281;-59
2023/05/29 11:08:55;;;;;;;4.47;2.00;;;18.30;50.00;;;;;;5080863;28;20200;-59
2023/05/29 11:11:28;;;;;;;5.63;1.97;;;18.00;1.00;;;;;;5076498;28;20997;-60
2023/05/29 11:13:56;;;;;;;10.10;1.97;;;17.90;1.00;;;;;;5075987;28;20664;-59
2023/05/29 11:16:29;;;;;;;7.97;2.97;;;18.50;99.90;;;;;;5060063;28;20203;-59
2023/05/29 11:18:57;;;;;;;4.03;1.83;;;18.40;99.90;;;;;;5075795;28;20254;-59
2023/05/29 11:21:33;;;;;;;8.20;2.20;;;18.50;1.00;;;;;;5056422;28;20595;-59
2023/05/29 11:24:07;;;;;;;5.40;1.90;;;18.50;99.90;;;;;;5072936;28;21656;-59
2023/05/29 11:26:37;;;;;;;5.63;2.10;;;18.70;1.00;;;;;;5068025;28;20683;-59
2023/05/29 11:29:06;;;;;;;8.40;2.17;;;18.60;1.00;;;;;;5072270;28;20214;-59
2023/05/29 11:31:34;;;;;;;5.77;1.87;;;18.30;1.00;;;;;;5076012;28;20294;-59
2023/05/29 11:34:04;;;;;;;7.90;2.57;;;18.10;1.00;;;;;;5069726;28;20242;-59
2023/05/29 11:36:35;;;;;;;6.17;1.87;;;18.00;1.00;;;;;;5073915;28;20209;-59
2023/05/29 11:39:03;;;;;;;5.57;1.93;;;18.20;1.00;;;;;;5071358;28;20248;-58
2023/05/29 11:41:30;;;;;;;12.27;2.50;;;18.20;1.00;;;;;;5075647;28;20210;-59
2023/05/29 11:43:57;;;;;;;7.33;1.83;;;18.70;1.00;;;;;;5074553;28;20298;-63
2023/05/29 11:46:26;;;;;;;5.30;1.93;;;18.90;1.00;;;;;;5076632;28;20214;-58
2023/05/29 11:48:53;;;;;;;3.60;1.73;;;18.90;99.90;;;;;;5080276;28;20658;-59
2023/05/29 11:51:20;;;;;;;4.60;1.50;;;18.80;1.00;;;;;;5077930;28;20292;-59
2023/05/29 11:53:48;;;;;;;9.03;1.90;;;18.80;1.00;;;;;;5074644;28;20213;-59
2023/05/29 11:56:15;;;;;;;6.03;2.03;;;18.90;99.90;;;;;;5082294;28;20763;-59
2023/05/29 11:58:43;;;;;;;10.07;2.87;;;18.80;99.90;;;;;;5049195;28;20654;-59
2023/05/29 12:01:10;;;;;;;4.97;1.53;;;19.40;1.00;;;;;;5076745;28;20220;-59
2023/05/29 12:03:41;;;;;;;7.67;2.30;;;19.30;99.90;;;;;;5076492;28;20209;-59
2023/05/29 12:06:11;;;;;;;7.83;2.10;;;19.20;1.00;;;;;;5061568;28;20220;-59
2023/05/29 12:08:39;;;;;;;10.40;2.23;;;19.40;1.00;;;;;;5068570;28;20201;-61
2023/05/29 12:11:06;;;;;;;6.03;1.83;;;19.90;41.80;;;;;;5072358;28;20217;-61
2023/05/29 12:13:33;;;;;;;6.23;2.23;;;19.50;99.90;;;;;;5075446;28;20239;-61
2023/05/29 12:16:03;;;;;;;5.23;2.03;;;19.20;1.00;;;;;;5060239;28;20435;-61
2023/05/29 12:18:30;;;;;;;6.73;2.53;;;18.90;99.90;;;;;;5043901;28;20207;-61
2023/05/29 12:21:07;;;;;;;6.07;1.80;;;18.90;1.00;;;;;;5066067;28;20544;-61
2023/05/29 12:23:34;;;;;;;6.27;1.97;;;18.80;1.00;;;;;;5068372;28;20678;-61
2023/05/29 12:26:01;;;;;;;14.70;2.60;;;18.90;99.90;;;;;;5079169;28;20740;-60
2023/05/29 12:28:28;;;;;;;8.60;2.30;;;18.80;1.00;;;;;;5057070;28;20261;-60
2023/05/29 12:30:59;;;;;;;5.83;2.10;;;19.00;99.90;;;;;;5065837;28;20215;-60
2023/05/29 12:33:29;;;;;;;9.10;2.20;;;19.40;99.90;;;;;;5065235;28;20233;-63
2023/05/29 12:36:07;;;;;;;3.97;2.00;;;19.30;1.00;;;;;;5066939;28;20678;-60
2023/05/29 12:38:50;;;;;;;7.23;2.07;;;19.30;1.00;;;;;;5065851;28;20213;-60
2023/05/29 12:41:36;;;;;;;6.60;1.83;;;19.60;99.90;;;;;;5069974;28;20296;-60
2023/05/29 12:44:04;;;;;;;5.37;2.00;;;19.80;99.90;;;;;;5059980;28;20209;-60
2023/05/29 12:46:45;;;;;;;5.87;1.97;;;19.10;1.00;;;;;;5057491;28;20206;-60
2023/05/29 12:49:15;;;;;;;7.60;1.87;;;19.20;1.00;;;;;;5065280;28;20284;-60
2023/05/29 12:51:44;;;;;;;6.00;2.23;;;19.40;98.90;;;;;;5060482;28;20231;-60
2023/05/29 12:54:15;;;;;;;4.60;1.53;;;19.50;1.00;;;;;;5063899;28;20236;-60